Time;durP1;ratioP1;P1;durP2;ratioP2;P2;SDS_P1;SDS_P2;PMS_P1;PMS_P2;Temp;Humidity;BMP_temperature;BMP_pressure;BME280_temperature;BME280_humidity;BME280_pressure;Samples;Min_cycle;Max_cycle;Signal;HPM_P1;HPM_P2
2023/07/18 00:01:11;;;;;;;10.63;9.35;;;;;;;20.59;100.00;95111.00;4989023;28;20034;-77
2023/07/18 00:03:36;;;;;;;13.18;10.35;;;;;;;20.43;100.00;95123.00;5016733;28;20565;-76
2023/07/18 00:06:02;;;;;;;10.60;9.63;;;;;;;20.45;100.00;95126.25;5020060;28;20079;-78
2023/07/18 00:08:27;;;;;;;12.23;10.40;;;;;;;20.57;100.00;95129.69;5019378;28;20029;-77
2023/07/18 00:10:53;;;;;;;11.10;9.63;;;;;;;20.56;100.00;95111.47;5018711;28;20033;-79
2023/07/18 00:13:18;;;;;;;11.80;9.80;;;;;;;20.33;100.00;95120.13;5022704;28;20095;-77
2023/07/18 00:15:44;;;;;;;10.85;9.75;;;;;;;20.37;100.00;95108.94;5030911;28;20071;-77
2023/07/18 00:18:10;;;;;;;11.57;10.38;;;;;;;20.23;100.00;95112.78;4999756;28;20022;-77
2023/07/18 00:20:36;;;;;;;10.98;9.85;;;;;;;20.36;100.00;95114.41;5019270;28;20055;-77
2023/07/18 00:23:01;;;;;;;10.63;9.52;;;;;;;20.43;100.00;95115.13;5017855;28;20502;-78
2023/07/18 00:25:27;;;;;;;11.55;9.40;;;;;;;20.10;100.00;95143.75;5019384;28;20059;-77
2023/07/18 00:27:53;;;;;;;9.88;8.98;;;;;;;20.26;100.00;95135.22;5018853;28;20029;-78
2023/07/18 00:30:20;;;;;;;15.60;10.05;;;;;;;20.14;100.00;95153.59;5019302;28;20103;-78
2023/07/18 00:32:46;;;;;;;10.68;9.77;;;;;;;20.22;100.00;95150.66;5018710;28;20067;-78
2023/07/18 00:35:13;;;;;;;11.02;10.00;;;;;;;20.14;100.00;95165.94;5019144;28;20410;-77
2023/07/18 00:37:39;;;;;;;11.02;9.93;;;;;;;20.17;100.00;95160.22;5018927;28;20873;-77
2023/07/18 00:40:14;;;;;;;11.40;10.40;;;;;;;20.11;100.00;95167.19;5002242;28;20140;-77
2023/07/18 00:42:43;;;;;;;14.35;11.25;;;;;;;19.84;100.00;95168.59;5019162;28;20029;-77
2023/07/18 00:45:09;;;;;;;11.20;9.30;;;;;;;19.93;100.00;95185.66;5019888;28;20026;-78
2023/07/18 00:47:40;;;;;;;10.90;9.73;;;;;;;19.82;100.00;95168.78;5018733;28;20040;-78
2023/07/18 00:50:07;;;;;;;11.07;10.00;;;;;;;19.98;100.00;95180.50;5017056;28;20033;-79
2023/07/18 00:52:38;;;;;;;17.65;10.02;;;;;;;19.79;100.00;95182.38;5016065;28;20032;-78
2023/07/18 00:55:04;;;;;;;10.63;9.57;;;;;;;19.76;100.00;95184.66;5012882;28;20045;-80
2023/07/18 00:57:31;;;;;;;13.75;10.10;;;;;;;19.83;100.00;95195.91;5017786;28;20033;-77
2023/07/18 00:59:57;;;;;;;10.70;9.68;;;;;;;19.89;100.00;95173.97;5019336;28;20044;-79
2023/07/18 01:02:23;;;;;;;11.77;10.57;;;;;;;19.55;100.00;95179.88;5017074;28;20029;-82
2023/07/18 01:04:48;;;;;;;12.40;10.90;;;;;;;19.29;100.00;95223.78;4982812;28;20041;-80
2023/07/18 01:07:15;;;;;;;10.88;9.60;;;;;;;19.65;100.00;95198.56;4999925;28;20025;-82
2023/07/18 01:09:41;;;;;;;11.40;10.32;;;;;;;19.48;100.00;95197.53;5017453;28;20120;-80
2023/07/18 01:12:06;;;;;;;11.15;10.05;;;;;;;19.49;100.00;95204.41;5018192;28;20128;-77
2023/07/18 01:14:33;;;;;;;10.70;9.70;;;;;;;19.54;100.00;95201.91;4989166;28;20095;-79
2023/07/18 01:16:58;;;;;;;11.10;9.93;;;;;;;19.62;100.00;95188.47;4998050;28;20482;-78
2023/07/18 01:19:24;;;;;;;10.52;9.52;;;;;;;19.70;100.00;95180.28;5008856;28;20120;-78
2023/07/18 01:21:49;;;;;;;11.32;10.20;;;;;;;19.72;100.00;95165.09;5019470;28;20079;-78
2023/07/18 01:24:14;;;;;;;11.88;10.77;;;;;;;19.72;100.00;95150.13;5023456;28;20104;-78
2023/07/18 01:26:40;;;;;;;11.88;10.65;;;;;;;19.71;100.00;95152.97;5005799;28;20037;-78
2023/07/18 01:29:05;;;;;;;11.10;10.10;;;;;;;19.62;100.00;95155.09;5022477;28;20403;-78
2023/07/18 01:31:32;;;;;;;12.05;10.63;;;;;;;19.60;100.00;95177.38;5023187;28;20102;-78
2023/07/18 01:33:57;;;;;;;11.02;9.63;;;;;;;19.70;100.00;95180.28;5022709;28;20017;-77
2023/07/18 01:36:24;;;;;;;12.48;10.63;;;;;;;19.70;100.00;95164.50;5021758;28;20029;-77
2023/07/18 01:38:49;;;;;;;11.43;10.43;;;;;;;19.63;100.00;95180.38;5005958;28;20735;-78
2023/07/18 01:41:15;;;;;;;11.52;10.57;;;;;;;19.62;100.00;95193.75;5012914;28;20028;-77
2023/07/18 01:43:40;;;;;;;20.35;13.60;;;;;;;19.27;100.00;95189.03;5018291;28;20818;-79
2023/07/18 01:46:06;;;;;;;12.85;11.65;;;;;;;19.10;100.00;95230.03;5021852;28;20395;-78
2023/07/18 01:48:32;;;;;;;12.45;11.35;;;;;;;19.18;100.00;95240.22;5009636;28;20022;-77
2023/07/18 01:50:58;;;;;;;15.88;11.25;;;;;;;18.99;100.00;95229.91;5014511;28;20026;-78
2023/07/18 01:53:26;;;;;;;13.57;11.50;;;;;;;19.07;100.00;95253.28;5002016;28;20105;-80
2023/07/18 01:55:51;;;;;;;12.63;11.18;;;;;;;19.13;100.00;95255.03;5019124;28;20029;-78
2023/07/18 01:58:17;;;;;;;12.82;11.57;;;;;;;19.08;100.00;95250.44;5004991;28;20033;-78
2023/07/18 02:00:42;;;;;;;12.90;11.52;;;;;;;18.87;100.00;95258.69;5005496;28;20179;-77
2023/07/18 02:03:08;;;;;;;11.82;10.77;;;;;;;18.95;100.00;95266.28;5021579;28;20037;-78
2023/07/18 02:05:33;;;;;;;13.32;11.95;;;;;;;19.01;100.00;95265.44;5023533;28;20400;-77
2023/07/18 02:07:59;;;;;;;12.90;11.70;;;;;;;19.02;100.00;95272.28;5004165;28;20021;-78
2023/07/18 02:10:25;;;;;;;11.73;10.57;;;;;;;19.08;100.00;95262.75;5023117;28;20916;-78
2023/07/18 02:12:53;;;;;;;12.63;10.70;;;;;;;19.18;100.00;95245.50;5035413;28;20071;-78
2023/07/18 02:15:19;;;;;;;11.90;10.90;;;;;;;19.06;100.00;95249.03;5021277;28;20092;-78
2023/07/18 02:17:45;;;;;;;15.75;12.38;;;;;;;19.15;100.00;95263.50;5004577;28;20037;-78
2023/07/18 02:20:13;;;;;;;12.10;10.98;;;;;;;19.06;100.00;95249.03;5004426;28;20025;-78
2023/07/18 02:22:41;;;;;;;12.75;11.63;;;;;;;19.14;100.00;95262.69;5022172;28;20033;-77
2023/07/18 02:25:07;;;;;;;13.20;11.63;;;;;;;19.01;100.00;95270.69;5020348;28;20026;-77
2023/07/18 02:27:39;;;;;;;11.88;10.70;;;;;;;18.97;100.00;95274.78;4996154;28;20715;-77
2023/07/18 02:30:08;;;;;;;12.32;11.23;;;;;;;19.01;100.00;95260.19;4996099;28;20084;-77
2023/07/18 02:32:34;;;;;;;11.50;10.40;;;;;;;19.07;100.00;95269.81;5021840;28;20609;-77
2023/07/18 02:35:00;;;;;;;13.93;12.52;;;;;;;19.05;100.00;95253.47;5021711;28;20029;-77
2023/07/18 02:37:26;;;;;;;11.75;10.65;;;;;;;18.97;100.00;95259.03;5021502;28;20026;-79
2023/07/18 02:39:52;;;;;;;12.10;11.00;;;;;;;18.81;100.00;95256.94;5021334;28;20854;-79
2023/07/18 02:42:18;;;;;;;10.35;9.35;;;;;;;19.01;100.00;95256.78;5020297;28;20097;-77
2023/07/18 02:44:45;;;;;;;14.30;11.63;;;;;;;19.09;100.00;95248.59;5020473;28;20521;-77
2023/07/18 02:47:11;;;;;;;16.02;12.27;;;;;;;18.97;100.00;95258.22;5020811;28;20044;-77
2023/07/18 02:49:36;;;;;;;13.43;11.32;;;;;;;19.04;100.00;95270.25;5011212;28;20021;-77
2023/07/18 02:52:03;;;;;;;12.02;10.80;;;;;;;18.99;100.00;95266.66;5022275;28;20033;-77
2023/07/18 02:54:29;;;;;;;13.25;11.90;;;;;;;18.78;100.00;95273.88;5020274;28;20022;-78
2023/07/18 02:56:56;;;;;;;12.00;10.80;;;;;;;18.66;100.00;95265.09;5020574;28;20495;-78
2023/07/18 02:59:22;;;;;;;17.48;10.93;;;;;;;18.89;100.00;95288.16;5019481;28;20026;-77
2023/07/18 03:01:54;;;;;;;17.70;11.73;;;;;;;18.72;100.00;95293.09;5020833;28;20032;-77
2023/07/18 03:04:20;;;;;;;12.05;10.90;;;;;;;18.83;100.00;95310.00;5020526;28;20816;-77
2023/07/18 03:06:47;;;;;;;13.00;10.82;;;;;;;18.77;100.00;95295.91;5019074;28;20136;-77
2023/07/18 03:09:16;;;;;;;11.98;10.80;;;;;;;18.77;100.00;95297.72;5019726;28;20410;-77
2023/07/18 03:11:41;;;;;;;11.85;10.75;;;;;;;18.78;100.00;95296.72;5002949;28;20500;-77
2023/07/18 03:14:08;;;;;;;13.63;12.05;;;;;;;18.84;100.00;95291.44;5020201;28;20079;-77
2023/07/18 03:16:33;;;;;;;12.43;11.10;;;;;;;18.83;100.00;95281.13;5019499;28;20128;-78
2023/07/18 03:18:59;;;;;;;11.85;10.75;;;;;;;18.95;100.00;95258.41;5016151;28;20501;-78
2023/07/18 03:21:25;;;;;;;12.85;11.18;;;;;;;18.86;100.00;95252.63;5010635;28;20423;-79
2023/07/18 03:23:51;;;;;;;12.13;10.65;;;;;;;18.86;100.00;95251.81;4985651;28;20517;-80
2023/07/18 03:26:16;;;;;;;12.35;11.07;;;;;;;18.96;100.00;95254.78;5014075;28;20033;-80
2023/07/18 03:28:42;;;;;;;11.80;9.70;;;;;;;19.08;100.00;95255.69;5013139;28;20053;-79
2023/07/18 03:31:07;;;;;;;12.20;10.82;;;;;;;19.12;100.00;95248.97;4983307;28;20104;-78
2023/07/18 03:33:32;;;;;;;13.73;11.10;;;;;;;19.12;100.00;95246.34;5014798;28;20033;-79
2023/07/18 03:35:58;;;;;;;11.38;10.25;;;;;;;19.29;100.00;95254.50;5015692;28;20738;-78
2023/07/18 03:38:23;;;;;;;11.40;10.27;;;;;;;19.42;100.00;95231.53;5001644;28;20505;-79
2023/07/18 03:40:50;;;;;;;11.23;10.23;;;;;;;19.64;100.00;95191.69;5019667;28;20496;-79
2023/07/18 03:43:15;;;;;;;11.07;9.98;;;;;;;20.17;100.00;95145.25;5018751;28;20025;-78
2023/07/18 03:45:41;;;;;;;9.75;8.73;;;;;;;20.76;100.00;95101.41;5002405;28;20055;-79
2023/07/18 03:48:06;;;;;;;10.10;9.07;;;;;;;21.49;100.00;95062.09;5002964;28;20064;-77
2023/07/18 03:50:32;;;;;;;10.13;9.25;;;;;;;22.32;100.00;95025.28;5005884;28;20025;-78
2023/07/18 03:52:57;;;;;;;7.97;7.28;;;;;;;22.66;100.00;95009.44;5003590;28;20037;-78
2023/07/18 03:55:23;;;;;;;10.13;7.07;;;;;;;23.00;100.00;94995.06;5018082;28;20022;-78
2023/07/18 03:57:48;;;;;;;8.48;7.78;;;;;;;23.29;100.00;94993.00;5009239;28;20045;-78
2023/07/18 04:00:17;;;;;;;12.70;7.82;;;;;;;23.79;100.00;94979.50;5015154;28;20045;-78
2023/07/18 04:02:42;;;;;;;;;;;;;;;24.28;100.00;94982.81;5011785;28;20036;-79
2023/07/18 04:05:08;;;;;;;6.18;5.68;;;;;;;24.59;100.00;94979.31;5014429;28;19917;-78
2023/07/18 04:07:34;;;;;;;8.43;7.63;;;;;;;24.74;100.00;94973.28;4993967;28;20650;-78
2023/07/18 04:09:59;;;;;;;6.97;6.38;;;;;;;25.24;100.00;94970.06;5017480;28;20079;-78
2023/07/18 04:12:25;;;;;;;7.22;6.63;;;;;;;25.35;100.00;94974.31;5017641;28;20159;-79
2023/07/18 04:14:51;;;;;;;8.27;7.47;;;;;;;25.75;100.00;94978.94;4987070;28;20152;-78
2023/07/18 04:17:16;;;;;;;6.63;5.97;;;;;;;26.30;100.00;94978.94;5017231;28;20022;-79
2023/07/18 04:19:42;;;;;;;8.45;6.45;;;;;;;26.12;100.00;94971.50;5019242;28;20088;-78
2023/07/18 04:22:07;;;;;;;7.25;6.07;;;;;;;26.82;100.00;94972.47;5018403;28;20060;-79
2023/07/18 04:24:34;;;;;;;8.80;6.32;;;;;;;27.13;100.00;94965.97;5019652;28;20037;-79
2023/07/18 04:26:59;;;;;;;6.68;6.07;;;;;;;26.93;100.00;94960.72;4988276;28;20049;-79
2023/07/18 04:29:25;;;;;;;12.77;5.90;;;;;;;27.17;100.00;94961.66;5018400;28;20965;-79
2023/07/18 04:31:51;;;;;;;9.45;6.45;;;;;;;26.98;100.00;94958.84;5002618;28;20529;-78
2023/07/18 04:34:16;;;;;;;6.88;6.25;;;;;;;26.73;100.00;94959.72;5017749;28;20036;-79
2023/07/18 04:36:42;;;;;;;6.15;5.65;;;;;;;27.87;100.00;94965.78;4991190;28;20045;-80
2023/07/18 04:39:08;;;;;;;10.25;5.43;;;;;;;27.85;100.00;94957.28;5015688;28;20503;-78
2023/07/18 04:41:34;;;;;;;6.05;5.60;;;;;;;28.00;100.00;94961.72;5018684;28;20100;-78
2023/07/18 04:43:59;;;;;;;5.82;5.40;;;;;;;28.28;100.00;94958.28;5004700;28;20037;-78
2023/07/18 04:46:25;;;;;;;6.32;5.75;;;;;;;28.20;100.00;94966.88;5001188;28;20040;-78
2023/07/18 04:48:51;;;;;;;6.35;4.97;;;;;;;28.57;100.00;94969.72;5020314;28;20121;-78
2023/07/18 04:51:17;;;;;;;7.03;6.40;;;;;;;28.31;100.00;94959.59;5018746;28;20855;-78
2023/07/18 04:53:42;;;;;;;7.60;7.05;;;;;;;28.64;100.00;94964.06;5010846;28;20029;-80
2023/07/18 04:56:08;;;;;;;6.90;5.97;;;;;;;29.17;100.00;94960.25;4999840;28;20740;-79
2023/07/18 04:58:33;;;;;;;6.72;6.07;;;;;;;29.44;98.42;94956.19;5019220;28;20411;-78
2023/07/18 05:00:59;;;;;;;6.93;5.57;;;;;;;29.64;95.99;94962.00;5013724;28;20144;-79
2023/07/18 05:03:26;;;;;;;6.18;5.68;;;;;;;29.97;95.54;94957.53;5022026;28;20029;-80
2023/07/18 05:05:52;;;;;;;9.77;6.00;;;;;;;30.23;95.74;94958.72;5022510;28;20025;-78
2023/07/18 05:08:18;;;;;;;8.25;6.20;;;;;;;30.02;97.10;94954.78;5020927;28;20088;-81
2023/07/18 05:10:43;;;;;;;6.85;6.25;;;;;;;29.87;96.07;94959.56;5022850;28;20108;-80
2023/07/18 05:13:10;;;;;;;8.93;7.35;;;;;;;30.03;93.61;94968.94;5021080;28;20049;-79
2023/07/18 05:15:36;;;;;;;7.22;6.63;;;;;;;30.79;91.02;94966.53;5022481;28;20067;-79
2023/07/18 05:18:02;;;;;;;7.17;6.67;;;;;;;31.44;86.97;94960.94;5021986;28;20836;-79
2023/07/18 05:20:28;;;;;;;7.40;6.70;;;;;;;31.31;88.20;94964.44;4992127;28;20033;-79
2023/07/18 05:22:53;;;;;;;7.60;6.68;;;;;;;31.17;89.15;94956.44;5018952;28;20427;-80
2023/07/18 05:25:19;;;;;;;7.82;7.13;;;;;;;31.06;89.80;94973.78;5020655;28;20028;-79
2023/07/18 05:27:45;;;;;;;8.55;7.75;;;;;;;30.97;89.85;94970.25;5014726;28;20041;-79
2023/07/18 05:30:20;;;;;;;9.27;8.30;;;;;;;29.13;100.00;94967.22;5011190;28;20041;-79
2023/07/18 05:32:46;;;;;;;8.75;7.95;;;;;;;29.60;99.50;94970.91;5018232;28;20052;-79
2023/07/18 05:35:15;;;;;;;12.23;7.68;;;;;;;31.41;88.80;94966.91;5017345;28;20056;-79
2023/07/18 05:37:42;;;;;;;9.63;7.13;;;;;;;32.23;76.88;94972.03;5014253;28;20045;-80
2023/07/18 05:40:09;;;;;;;6.63;6.13;;;;;;;32.75;72.44;94968.53;5012075;28;20033;-80
2023/07/18 05:42:35;;;;;;;7.20;6.60;;;;;;;33.47;69.16;94970.84;4994948;28;20522;-79
2023/07/18 05:45:01;;;;;;;7.43;6.30;;;;;;;33.70;64.82;94969.63;5012175;28;20061;-80
2023/07/18 05:47:26;;;;;;;7.18;6.68;;;;;;;34.00;65.04;94975.16;5010611;28;20128;-78
2023/07/18 05:49:52;;;;;;;15.67;7.03;;;;;;;34.42;62.32;94967.03;5013102;28;20521;-79
2023/07/18 05:52:17;;;;;;;7.40;6.90;;;;;;;34.80;61.69;94967.13;5010975;28;20491;-80
2023/07/18 05:54:44;;;;;;;8.48;6.82;;;;;;;35.28;58.12;94965.97;5017147;28;20060;-80
2023/07/18 05:57:10;;;;;;;8.05;7.40;;;;;;;35.97;57.29;94971.66;5017162;28;20137;-79
2023/07/18 05:59:36;;;;;;;8.00;7.23;;;;;;;36.05;56.35;94970.81;5016261;28;20112;-79
2023/07/18 06:02:02;;;;;;;7.83;7.07;;;;;;;35.73;57.28;94976.94;5012437;28;20034;-80
2023/07/18 06:04:28;;;;;;;8.23;7.38;;;;;;;36.14;56.07;94982.34;5019028;28;20108;-79
2023/07/18 06:06:53;;;;;;;8.23;7.50;;;;;;;36.16;54.10;94968.50;5015811;28;20133;-79
2023/07/18 06:09:19;;;;;;;7.67;6.97;;;;;;;36.16;54.90;94972.00;5001012;28;20030;-80
2023/07/18 06:11:44;;;;;;;7.80;7.20;;;;;;;36.91;54.03;94973.44;4999553;28;20038;-80
2023/07/18 06:14:09;;;;;;;7.90;7.23;;;;;;;36.55;50.52;94978.00;5002621;28;20033;-80
2023/07/18 06:16:35;;;;;;;8.00;7.33;;;;;;;37.00;50.54;94977.97;4999204;28;20062;-79
2023/07/18 06:19:00;;;;;;;16.57;8.00;;;;;;;36.74;53.72;94979.06;5001971;28;20037;-81
2023/07/18 06:21:26;;;;;;;8.53;7.60;;;;;;;36.91;52.59;94973.44;5001016;28;20022;-79
2023/07/18 06:23:56;;;;;;;15.00;8.30;;;;;;;37.24;50.20;94978.78;5001920;28;20041;-81
2023/07/18 06:26:22;;;;;;;7.97;7.38;;;;;;;36.96;49.83;94977.84;5010186;28;20044;-79
2023/07/18 06:28:48;;;;;;;8.20;7.40;;;;;;;37.62;46.65;94977.63;5000936;28;20048;-81
2023/07/18 06:31:14;;;;;;;9.00;8.15;;;;;;;37.48;48.55;94967.97;5016591;28;20048;-81
2023/07/18 06:33:40;;;;;;;10.38;9.40;;;;;;;36.30;54.01;94969.00;5004637;28;20511;-81
2023/07/18 06:36:06;;;;;;;8.77;7.90;;;;;;;33.96;64.28;94971.50;5002594;28;20034;-81
2023/07/18 06:38:31;;;;;;;8.63;8.02;;;;;;;33.05;66.75;94966.91;5001490;28;20088;-80
2023/07/18 06:40:57;;;;;;;8.50;7.93;;;;;;;33.39;69.68;94955.50;5019614;28;20033;-81
2023/07/18 06:43:22;;;;;;;7.65;6.97;;;;;;;33.67;66.24;94956.81;5003544;28;20571;-80
2023/07/18 06:45:48;;;;;;;7.43;6.83;;;;;;;33.47;68.70;94962.78;5016998;28;20118;-79
2023/07/18 06:48:14;;;;;;;7.87;7.27;;;;;;;34.80;62.33;94956.34;4999773;28;20569;-81
2023/07/18 06:50:47;;;;;;;8.32;7.00;;;;;;;36.95;53.85;94955.44;5009222;28;20139;-78
2023/07/18 06:53:19;;;;;;;8.85;7.70;;;;;;;38.35;48.70;94951.13;5008343;28;20053;-81
2023/07/18 06:55:46;;;;;;;8.27;7.68;;;;;;;36.84;48.29;94956.22;5019926;28;20021;-79
2023/07/18 06:58:12;;;;;;;8.82;7.97;;;;;;;37.12;48.83;94956.38;5019707;28;20529;-80
2023/07/18 07:00:38;;;;;;;8.75;7.90;;;;;;;37.05;47.45;94956.94;5018151;28;20025;-81
2023/07/18 07:03:04;;;;;;;8.35;7.70;;;;;;;36.69;52.76;94960.38;5002780;28;20464;-80
2023/07/18 07:05:29;;;;;;;9.02;8.32;;;;;;;34.32;61.67;94953.94;5018143;28;20017;-81
2023/07/18 07:07:55;;;;;;;10.15;8.20;;;;;;;33.55;67.53;94964.69;5002744;28;20033;-83
2023/07/18 07:10:21;;;;;;;10.65;7.70;;;;;;;34.18;66.63;94960.59;5020208;28;20022;-81
2023/07/18 07:12:47;;;;;;;8.10;7.30;;;;;;;33.61;67.06;94963.47;4990232;28;20820;-83
2023/07/18 07:15:13;;;;;;;8.85;8.05;;;;;;;33.57;69.93;94961.66;5017417;28;20021;-84
2023/07/18 07:17:39;;;;;;;9.05;8.18;;;;;;;32.79;68.48;94969.50;5018414;28;20581;-82
2023/07/18 07:20:12;;;;;;;9.55;8.85;;;;;;;33.93;66.69;94962.19;5001881;28;20395;-82
2023/07/18 07:22:38;;;;;;;9.23;8.25;;;;;;;33.74;69.99;94967.09;5018223;28;20053;-84
2023/07/18 07:25:04;;;;;;;19.67;8.55;;;;;;;33.00;72.21;94969.75;5020507;28;20388;-85
2023/07/18 07:27:30;;;;;;;9.27;8.20;;;;;;;33.43;73.88;94966.41;5017692;28;20037;-84
2023/07/18 07:29:55;;;;;;;8.93;8.23;;;;;;;33.35;73.68;94966.09;5020532;28;20034;-81
2023/07/18 07:32:20;;;;;;;11.93;8.75;;;;;;;33.41;74.91;94961.34;5018644;28;20025;-84
2023/07/18 07:34:46;;;;;;;8.73;7.90;;;;;;;33.09;73.62;94964.44;5018282;28;20038;-84
2023/07/18 07:37:11;;;;;;;9.52;8.55;;;;;;;33.37;72.51;94963.84;4997941;28;20030;-87
2023/07/18 07:39:36;;;;;;;10.52;9.45;;;;;;;33.28;72.03;94967.63;5000352;28;20328;-81
2023/07/18 07:42:02;;;;;;;9.20;8.45;;;;;;;33.29;74.80;94961.16;5015650;28;20029;-84
2023/07/18 07:44:27;;;;;;;10.50;9.45;;;;;;;32.86;71.81;94964.50;5013907;28;20448;-89
2023/07/18 07:46:57;;;;;;;9.50;8.60;;;;;;;33.03;73.06;94955.69;5013802;28;20048;-86
2023/07/18 07:49:22;;;;;;;14.73;8.43;;;;;;;32.47;73.15;94959.06;4996468;28;20088;-84
2023/07/18 07:51:47;;;;;;;12.15;10.55;;;;;;;33.23;75.04;94957.06;5016087;28;20033;-88
2023/07/18 07:54:17;;;;;;;9.75;8.88;;;;;;;33.58;71.85;94952.50;5014827;28;20419;-94
2023/07/18 07:56:42;;;;;;;11.18;8.88;;;;;;;33.70;72.80;94950.00;5019558;28;20085;-84
2023/07/18 07:59:08;;;;;;;9.98;8.98;;;;;;;33.12;72.76;94950.38;5001823;28;20041;-85
2023/07/18 08:01:33;;;;;;;11.80;9.07;;;;;;;33.71;71.93;94956.97;5014023;28;20506;-83
2023/07/18 08:03:59;;;;;;;10.05;8.70;;;;;;;34.08;73.31;94955.53;5010648;28;20037;-83
2023/07/18 08:06:24;;;;;;;10.27;9.27;;;;;;;33.24;68.34;94942.50;4997855;28;20392;-83
2023/07/18 08:08:50;;;;;;;11.23;10.20;;;;;;;32.40;77.41;94958.72;5016376;28;20095;-89
2023/07/18 08:11:15;;;;;;;10.55;9.52;;;;;;;32.24;82.29;94952.94;5012627;28;20052;-83
2023/07/18 08:13:40;;;;;;;9.98;9.18;;;;;;;31.58;85.25;94953.69;5015214;28;20064;-85
2023/07/18 08:16:06;;;;;;;11.20;10.30;;;;;;;31.54;82.41;94958.06;5017751;28;20108;-83
2023/07/18 08:18:34;;;;;;;14.35;10.18;;;;;;;31.22;90.66;94958.22;5020606;28;20073;-84
2023/07/18 08:20:59;;;;;;;10.75;9.73;;;;;;;30.94;90.12;94961.97;5001400;28;20483;-85
2023/07/18 08:23:25;;;;;;;10.55;9.52;;;;;;;30.68;95.11;94945.63;5001344;28;20111;-86
2023/07/18 08:25:50;;;;;;;9.65;8.77;;;;;;;31.66;93.64;94955.66;5020169;28;20043;-84
2023/07/18 08:28:15;;;;;;;10.13;9.05;;;;;;;32.61;85.40;94945.59;5000577;28;20118;-84
2023/07/18 08:30:41;;;;;;;10.13;8.63;;;;;;;32.97;80.36;94946.22;5015474;28;20021;-86
2023/07/18 08:33:09;;;;;;;9.75;8.90;;;;;;;33.05;75.72;94947.31;5017859;28;20044;-83
2023/07/18 08:35:37;;;;;;;12.25;9.70;;;;;;;32.95;83.74;94952.97;5017237;28;20030;-87
2023/07/18 08:38:02;;;;;;;9.67;8.77;;;;;;;32.44;81.05;94945.47;5010443;28;20033;-82
2023/07/18 08:40:28;;;;;;;10.73;9.43;;;;;;;31.78;84.67;94950.56;5016018;28;20476;-91
2023/07/18 08:42:53;;;;;;;10.75;9.00;;;;;;;31.37;83.38;94946.41;5012804;28;20124;-92
2023/07/18 08:45:22;;;;;;;9.95;8.95;;;;;;;31.16;90.29;94936.13;4999994;28;20231;-82
2023/07/18 08:47:49;;;;;;;11.02;10.02;;;;;;;30.66;98.77;94929.88;5005990;28;20064;-81
2023/07/18 08:50:14;;;;;;;11.15;10.20;;;;;;;29.51;100.00;94944.03;4987191;28;20025;-80
2023/07/18 08:52:40;;;;;;;11.30;10.20;;;;;;;29.88;100.00;94939.78;5015632;28;20396;-79
2023/07/18 08:55:06;;;;;;;10.90;9.80;;;;;;;30.65;100.00;94938.19;5011145;28;20041;-80
2023/07/18 08:57:32;;;;;;;11.35;9.55;;;;;;;31.43;100.00;94942.50;4992985;28;20073;-82
2023/07/18 09:00:06;;;;;;;12.13;9.85;;;;;;;32.01;94.83;94935.28;4997301;28;20082;-82
2023/07/18 09:02:31;;;;;;;10.50;8.93;;;;;;;31.64;93.16;94940.97;5000117;28;20513;-81
2023/07/18 09:04:57;;;;;;;16.30;10.20;;;;;;;31.18;96.08;94946.50;4991863;28;20128;-84
2023/07/18 09:07:27;;;;;;;10.30;9.40;;;;;;;31.06;100.00;94940.88;5000833;28;20091;-82
2023/07/18 09:09:53;;;;;;;10.73;9.65;;;;;;;31.20;96.41;94933.63;5016961;28;20060;-84
2023/07/18 09:12:19;;;;;;;10.77;9.73;;;;;;;31.21;90.85;94938.66;5017855;28;20046;-81
2023/07/18 09:14:44;;;;;;;11.27;10.18;;;;;;;31.91;84.50;94934.72;5018699;28;20473;-81
2023/07/18 09:17:10;;;;;;;10.77;9.85;;;;;;;32.65;89.94;94930.47;5011644;28;20025;-84
2023/07/18 09:19:40;;;;;;;12.27;9.63;;;;;;;33.08;87.68;94930.56;5017581;28;20120;-90
2023/07/18 09:22:07;;;;;;;11.85;9.68;;;;;;;33.60;90.61;94928.78;5000840;28;20068;-88
2023/07/18 09:24:35;;;;;;;10.98;9.95;;;;;;;33.67;85.87;94926.44;5019840;28;20025;-82
2023/07/18 09:27:01;;;;;;;;;;;;;;;32.92;84.95;94930.22;5016742;28;20025;-83
2023/07/18 09:29:26;;;;;;;11.75;10.38;;;;;;;32.85;83.00;94924.50;5016115;28;19928;-83
2023/07/18 09:31:53;;;;;;;18.63;10.15;;;;;;;32.28;91.04;94923.63;4999202;28;20140;-83
2023/07/18 09:34:19;;;;;;;11.43;10.38;;;;;;;32.07;91.42;94920.69;4998662;28;20029;-82
2023/07/18 09:36:57;;;;;;;11.73;10.48;;;;;;;32.14;92.49;94923.69;5007190;28;20040;-81
2023/07/18 09:39:23;;;;;;;11.60;10.55;;;;;;;32.84;89.76;94920.28;4999287;28;20509;-82
2023/07/18 09:41:48;;;;;;;15.40;10.95;;;;;;;31.54;94.15;94914.41;5009131;28;20040;-79
2023/07/18 09:44:14;;;;;;;12.57;10.35;;;;;;;32.46;90.12;94906.53;4997039;28;20112;-80
2023/07/18 09:46:40;;;;;;;12.55;10.73;;;;;;;33.05;82.82;94902.47;5007566;28;20132;-80
2023/07/18 09:49:05;;;;;;;11.68;10.38;;;;;;;33.13;85.93;94911.69;5001399;28;20026;-80
2023/07/18 09:51:33;;;;;;;12.40;11.20;;;;;;;33.33;81.83;94903.00;5012910;28;20022;-80
2023/07/18 09:53:59;;;;;;;11.65;10.63;;;;;;;32.24;86.46;94901.19;5018316;28;20025;-79
2023/07/18 09:56:26;;;;;;;13.05;11.80;;;;;;;31.52;91.24;94895.97;5003753;28;20032;-80
2023/07/18 09:58:52;;;;;;;12.60;11.43;;;;;;;32.11;88.07;94891.38;5016739;28;20037;-80
2023/07/18 10:01:21;;;;;;;13.82;11.07;;;;;;;32.49;88.65;94891.69;5018540;28;20026;-81
2023/07/18 10:03:52;;;;;;;12.63;10.02;;;;;;;31.98;87.93;94884.16;5000592;28;20052;-81
2023/07/18 10:06:18;;;;;;;12.98;11.80;;;;;;;32.52;88.04;94877.66;5010239;28;20037;-80
2023/07/18 10:08:44;;;;;;;15.32;11.40;;;;;;;32.91;90.38;94874.97;4990262;28;20455;-82
2023/07/18 10:11:11;;;;;;;12.70;10.70;;;;;;;33.01;85.58;94873.88;5009220;28;20033;-80
2023/07/18 10:13:55;;;;;;;12.85;11.15;;;;;;;32.04;87.91;94885.63;5011362;28;20124;-84
2023/07/18 10:16:21;;;;;;;12.95;11.60;;;;;;;31.83;89.42;94886.09;5009671;28;20037;-79
2023/07/18 10:18:47;;;;;;;18.63;10.88;;;;;;;31.74;89.52;94868.38;5021544;28;20388;-78
2023/07/18 10:21:28;;;;;;;11.45;10.35;;;;;;;31.72;92.50;94878.63;5016229;28;20038;-79
2023/07/18 10:23:53;;;;;;;11.75;10.25;;;;;;;31.74;91.27;94879.91;5018118;28;20022;-83
2023/07/18 10:26:32;;;;;;;11.57;10.57;;;;;;;32.11;92.86;94875.28;5021229;28;20048;-80
2023/07/18 10:29:02;;;;;;;11.10;10.02;;;;;;;32.46;90.73;94890.44;5017071;28;20033;-79
2023/07/18 10:31:29;;;;;;;13.07;10.30;;;;;;;32.74;87.01;94883.75;5018694;28;20104;-80
2023/07/18 10:34:11;;;;;;;11.02;10.02;;;;;;;33.32;85.83;94879.94;5006393;28;20034;-81
2023/07/18 10:36:41;;;;;;;10.50;9.50;;;;;;;33.58;81.41;94872.66;5020628;28;20144;-82
2023/07/18 10:39:12;;;;;;;10.90;10.10;;;;;;;33.02;82.52;94875.44;5020930;28;20041;-81
2023/07/18 10:41:43;;;;;;;12.43;10.73;;;;;;;31.85;84.53;94867.81;5003352;28;20057;-82
2023/07/18 10:44:12;;;;;;;11.98;10.70;;;;;;;32.42;88.80;94872.56;5021351;28;20544;-80
2023/07/18 10:46:38;;;;;;;11.90;10.68;;;;;;;32.42;87.25;94881.41;5020239;28;20106;-80
2023/07/18 10:49:05;;;;;;;12.85;11.57;;;;;;;32.47;87.10;94864.38;5020545;28;20508;-81
2023/07/18 10:51:31;;;;;;;12.20;10.77;;;;;;;33.20;84.99;94864.44;5020664;28;20108;-80
2023/07/18 10:53:58;;;;;;;11.77;10.57;;;;;;;33.58;81.19;94869.19;5019464;28;20040;-79
2023/07/18 10:56:24;;;;;;;11.82;7.75;;;;;;;33.45;73.32;94879.00;5020079;28;20021;-85
2023/07/18 10:58:51;;;;;;;10.40;8.57;;;;;;;33.03;77.27;94875.13;5019856;28;20850;-81
2023/07/18 11:01:17;;;;;;;10.40;9.27;;;;;;;33.16;78.46;94874.25;5013009;28;20034;-80
2023/07/18 11:03:47;;;;;;;9.75;8.80;;;;;;;33.87;80.43;94875.50;4989102;28;20030;-78
2023/07/18 11:06:14;;;;;;;11.10;9.90;;;;;;;33.84;78.37;94868.06;5004690;28;20562;-80
2023/07/18 11:08:44;;;;;;;8.98;6.95;;;;;;;33.84;71.16;94865.38;5020059;28;20415;-82
2023/07/18 11:11:10;;;;;;;5.82;4.68;;;;;;;33.48;67.12;94853.38;5021674;28;20036;-85
2023/07/18 11:13:37;;;;;;;7.00;5.28;;;;;;;33.43;68.81;94867.75;5020869;28;20041;-88
2023/07/18 11:16:07;;;;;;;6.60;6.00;;;;;;;34.08;73.65;94864.06;5003595;28;20041;-80
2023/07/18 11:18:38;;;;;;;7.30;6.07;;;;;;;33.77;69.93;94864.28;5025146;28;20753;-82